createdAt,value
2024-05-09T00:07:19.084Z,12
2024-05-09T00:17:19.670Z,12
2024-05-09T00:27:19.789Z,11.9
2024-05-09T00:37:20.528Z,11.8
2024-05-09T00:47:21.530Z,11.6
2024-05-09T00:57:22.290Z,11.6
2024-05-09T01:07:22.421Z,11.5
2024-05-09T01:17:22.784Z,11.4
2024-05-09T01:47:25.219Z,11.1
2024-05-09T01:57:25.756Z,11
2024-05-09T02:07:26.573Z,10.9
2024-05-09T02:17:26.983Z,10.5
2024-05-09T02:27:27.653Z,10.4
2024-05-09T02:37:28.112Z,10.2
2024-05-09T02:47:29.204Z,10.1
2024-05-09T02:57:29.776Z,10
2024-05-09T03:07:30.684Z,9.8
2024-05-09T03:17:31.913Z,9.7
2024-05-09T03:27:32.524Z,9.5
2024-05-09T03:37:33.348Z,9.4
2024-05-09T03:47:33.573Z,9.3
2024-05-09T03:57:34.044Z,9.1
2024-05-09T04:07:34.569Z,9.1
2024-05-09T04:17:34.983Z,9.1
2024-05-09T04:27:35.507Z,9.1
2024-05-09T04:37:36.194Z,9.1
2024-05-09T04:47:36.720Z,9.5
2024-05-09T05:07:38.239Z,10.6
2024-05-09T05:17:38.619Z,11.4
2024-05-09T05:27:38.831Z,12
2024-05-09T05:47:40.829Z,13.1
2024-05-09T06:07:41.642Z,13.3
2024-05-09T06:27:42.822Z,13.9
2024-05-09T06:37:43.344Z,14.5
2024-05-09T06:47:43.679Z,14.7
2024-05-09T06:57:43.931Z,14.7
2024-05-09T07:07:45.014Z,15.4
2024-05-09T07:17:46.129Z,15.8
2024-05-09T07:27:47.025Z,16.6
2024-05-09T07:37:47.897Z,17
2024-05-09T07:57:49.367Z,17.1
2024-05-09T08:07:49.830Z,17.9
2024-05-09T08:17:50.463Z,17.8
2024-05-09T08:27:51.149Z,18.2
2024-05-09T08:37:51.739Z,18.8
2024-05-09T08:47:52.111Z,18.9
2024-05-09T08:57:53.167Z,19.2
2024-05-09T09:07:54.030Z,19.1
2024-05-09T09:17:54.611Z,19.3
2024-05-09T09:27:55.582Z,19.2
2024-05-09T09:37:56.298Z,19.2
2024-05-09T09:47:56.983Z,20.1
2024-05-09T09:57:57.745Z,20.4
2024-05-09T10:07:58.338Z,21
2024-05-09T10:28:00.162Z,21.7
2024-05-09T10:48:01.429Z,20.6
2024-05-09T10:58:02.261Z,20.2
2024-05-09T12:48:09.673Z,20.7
2024-05-09T13:08:11.027Z,21
2024-05-09T13:28:12.259Z,20.5
2024-05-09T13:48:13.235Z,20.6
2024-05-09T14:08:14.522Z,20.6
2024-05-09T14:28:15.894Z,20.9
2024-05-09T14:38:16.425Z,21.7
2024-05-09T14:48:16.622Z,21.7
2024-05-09T15:08:18.479Z,21.3
2024-05-09T15:28:20.219Z,21
2024-05-09T15:48:21.531Z,21
2024-05-09T16:08:23.075Z,20.7
2024-05-09T16:28:25.590Z,20.5
2024-05-09T16:48:25.485Z,20.4
2024-05-09T17:08:26.582Z,20.1
2024-05-09T17:28:28.223Z,20.1
2024-05-09T17:38:28.605Z,20.1
2024-05-09T17:48:29.348Z,19.9
2024-05-09T18:08:29.881Z,19.5
2024-05-09T18:18:30.229Z,19.3
2024-05-09T18:28:30.696Z,19
2024-05-09T18:48:31.957Z,18.4
2024-05-09T19:08:33.059Z,17.7
2024-05-09T19:28:34.644Z,17
2024-05-09T19:38:35.227Z,16.8
2024-05-09T19:48:36.314Z,16.5
2024-05-09T19:58:36.347Z,16.2
2024-05-09T20:08:37.063Z,16
2024-05-09T20:18:37.323Z,15.7
2024-05-09T20:28:38.282Z,15.6
2024-05-09T20:38:39.141Z,15.4
2024-05-09T20:48:40.013Z,15.2
2024-05-09T20:58:40.271Z,15
2024-05-09T21:08:40.635Z,14.9
2024-05-09T21:18:41.463Z,14.7
2024-05-09T21:28:42.485Z,14.6
2024-05-09T21:29:04.368Z,14.5
2024-05-09T21:38:48.429Z,14.4
2024-05-09T21:48:49.010Z,14.2
2024-05-09T21:58:50.022Z,13.8
2024-05-09T22:08:50.881Z,13.5
2024-05-09T22:18:51.128Z,13.4
2024-05-09T22:28:51.231Z,13.4
2024-05-09T22:38:51.657Z,13.2
2024-05-09T22:48:51.918Z,12.9
2024-05-09T22:58:52.952Z,12.8
2024-05-09T23:08:53.691Z,12.5
2024-05-09T23:18:54.082Z,12.2
2024-05-09T23:28:54.985Z,12
2024-05-09T23:38:55.695Z,11.8
2024-05-09T23:48:56.345Z,11.7
2024-05-09T23:58:57.078Z,11.6
